createdAt,value
2023-02-15T00:02:48.735Z,95.03
2023-02-15T00:05:51.283Z,94.09
2023-02-15T00:08:55.239Z,91.88
2023-02-15T00:11:58.004Z,90.88
2023-02-15T00:15:00.524Z,91.49
2023-02-15T00:18:03.074Z,90.91
2023-02-15T00:21:07.450Z,91.60
2023-02-15T00:24:12.165Z,91.41
2023-02-15T00:27:14.786Z,89.85
2023-02-15T00:30:17.664Z,90.30
2023-02-15T00:33:20.855Z,90.14
2023-02-15T00:36:23.431Z,90.02
2023-02-15T00:39:26.727Z,89.10
2023-02-15T00:42:29.242Z,88.29
2023-02-15T00:45:31.920Z,89.08
2023-02-15T00:48:34.524Z,89.53
2023-02-15T00:51:37.042Z,90.20
2023-02-15T00:54:40.242Z,88.85
2023-02-15T00:57:43.330Z,89.46
2023-02-15T01:00:47.672Z,91.31
2023-02-15T01:03:50.554Z,90.54
2023-02-15T01:06:53.494Z,90.34
2023-02-15T01:09:56.057Z,89.85
2023-02-15T01:12:58.630Z,88.88
2023-02-15T01:16:01.721Z,87.62
2023-02-15T01:19:04.586Z,88.36
2023-02-15T01:22:07.843Z,88.76
2023-02-15T01:25:11.578Z,89.82
2023-02-15T01:28:14.223Z,89.55
2023-02-15T01:31:18.460Z,89.25
2023-02-15T01:34:21.485Z,89.58
2023-02-15T01:37:24.215Z,88.95
2023-02-15T01:40:27.162Z,88.41
2023-02-15T01:43:43.797Z,89.63
2023-02-15T01:46:50.835Z,90.33
2023-02-15T01:50:05.393Z,92.19
2023-02-15T01:53:20.234Z,92.36
2023-02-15T01:56:29.694Z,90.16
2023-02-15T01:59:33.416Z,88.76
2023-02-15T02:02:37.447Z,88.92
2023-02-15T02:05:40.986Z,90.40
2023-02-15T02:08:43.634Z,89.13
2023-02-15T02:11:49.775Z,88.91
2023-02-15T02:14:52.988Z,90.02
2023-02-15T02:18:10.915Z,89.44
2023-02-15T02:21:36.484Z,88.41
2023-02-15T02:24:41.843Z,89.99
2023-02-15T02:28:16.453Z,88.88
2023-02-15T02:31:40.959Z,89.96
2023-02-15T02:34:56.610Z,88.17
2023-02-15T02:38:38.523Z,90.81
2023-02-15T02:41:55.896Z,90.65
2023-02-15T02:45:03.289Z,88.87
2023-02-15T02:48:16.628Z,89.60
2023-02-15T02:51:31.973Z,87.74
2023-02-15T02:54:41.320Z,88.01
2023-02-15T02:57:55.019Z,89.52
2023-02-15T03:01:02.666Z,90.95
2023-02-15T03:04:10.506Z,88.80
2023-02-15T03:07:17.264Z,89.37
2023-02-15T03:10:22.612Z,90.29
2023-02-15T03:13:27.750Z,89.63
2023-02-15T03:16:31.003Z,89.69
2023-02-15T03:19:36.209Z,90.64
2023-02-15T03:22:53.112Z,89.75
2023-02-15T03:26:02.017Z,88.26
2023-02-15T03:29:09.551Z,89.03
2023-02-15T03:32:14.648Z,89.22
2023-02-15T03:35:17.591Z,89.30
2023-02-15T03:38:29.681Z,89.10
2023-02-15T03:41:35.742Z,88.83
2023-02-15T03:44:54.850Z,88.00
2023-02-15T03:47:58.393Z,88.42
2023-02-15T03:51:29.689Z,88.24
2023-02-15T03:54:43.833Z,88.40
2023-02-15T03:58:05.482Z,88.92
2023-02-15T04:01:36.245Z,88.44
2023-02-15T04:04:42.299Z,88.86
2023-02-15T04:07:45.361Z,89.45
2023-02-15T04:10:53.908Z,91.08
2023-02-15T04:13:57.840Z,88.98
2023-02-15T04:17:00.427Z,88.68
2023-02-15T04:20:21.903Z,88.62
2023-02-15T04:23:42.972Z,89.26
2023-02-15T04:26:45.536Z,88.50
2023-02-15T04:29:51.136Z,88.07
2023-02-15T04:32:55.206Z,87.73
2023-02-15T04:35:57.838Z,87.78
2023-02-15T04:39:00.766Z,87.90
2023-02-15T04:42:03.364Z,87.87
2023-02-15T04:45:06.418Z,88.35
2023-02-15T04:48:09.041Z,89.37
2023-02-15T04:51:12.403Z,91.07
2023-02-15T04:54:14.892Z,89.95
2023-02-15T04:57:17.584Z,89.47
2023-02-15T05:00:20.362Z,89.92
2023-02-15T05:03:22.943Z,91.40
2023-02-15T05:06:25.524Z,90.47
2023-02-15T05:09:28.287Z,89.08
2023-02-15T05:12:31.095Z,88.16
2023-02-15T05:15:33.730Z,88.82
2023-02-15T05:18:36.409Z,87.75
2023-02-15T05:21:39.055Z,87.61
2023-02-15T05:25:00.331Z,87.98
2023-02-15T05:28:21.345Z,88.20
2023-02-15T05:31:24.395Z,87.95
2023-02-15T05:34:27.685Z,88.71
2023-02-15T05:37:30.454Z,89.54
2023-02-15T05:40:33.643Z,89.93
2023-02-15T05:43:36.746Z,90.97
2023-02-15T05:46:39.941Z,89.56
2023-02-15T05:49:42.627Z,88.95
2023-02-15T05:52:46.118Z,89.76
2023-02-15T05:55:49.490Z,90.36
2023-02-15T05:58:54.581Z,91.27
2023-02-15T06:01:57.704Z,89.79
2023-02-15T06:05:00.582Z,89.61
2023-02-15T06:08:05.850Z,88.79
2023-02-15T06:11:09.402Z,88.73
2023-02-15T06:14:12.553Z,88.74
2023-02-15T06:17:15.351Z,88.66
2023-02-15T06:20:18.555Z,88.87
2023-02-15T06:23:21.327Z,88.46
2023-02-15T06:26:24.224Z,89.65
2023-02-15T06:29:27.199Z,90.55
2023-02-15T06:32:32.028Z,89.75
2023-02-15T06:35:34.839Z,89.57
2023-02-15T06:38:37.957Z,88.47
2023-02-15T06:41:43.293Z,88.42
2023-02-15T06:44:46.643Z,88.01
2023-02-15T06:47:49.467Z,88.19
2023-02-15T06:50:52.174Z,87.73
2023-02-15T06:53:54.933Z,87.48
2023-02-15T06:56:57.616Z,87.35
2023-02-15T07:00:00.880Z,86.76
2023-02-15T07:03:04.054Z,86.63
2023-02-15T07:06:12.076Z,86.55
2023-02-15T07:09:14.762Z,86.74
2023-02-15T07:12:36.345Z,86.42
2023-02-15T07:15:39.095Z,86.68
2023-02-15T07:18:42.136Z,87.10
2023-02-15T07:21:46.750Z,86.99
2023-02-15T07:24:50.671Z,86.66
2023-02-15T07:28:04.093Z,86.25
2023-02-15T07:31:06.891Z,85.44
2023-02-15T07:34:10.264Z,84.06
2023-02-15T07:37:13.023Z,83.46
2023-02-15T07:40:16.491Z,82.69
2023-02-15T07:43:19.336Z,82.82
2023-02-15T07:46:23.040Z,84.29
2023-02-15T07:49:25.821Z,86.41
2023-02-15T07:52:29.326Z,86.86
2023-02-15T07:55:32.672Z,87.30
2023-02-15T07:58:54.056Z,88.33
2023-02-15T08:01:58.376Z,89.37
2023-02-15T08:05:01.292Z,89.52
2023-02-15T08:08:04.970Z,89.47
2023-02-15T08:11:27.273Z,88.39
2023-02-15T08:14:29.889Z,88.89
2023-02-15T08:17:32.452Z,88.91
2023-02-15T08:20:34.939Z,86.52
2023-02-15T08:23:37.675Z,86.20
2023-02-15T08:26:42.425Z,86.16
2023-02-15T08:29:45.514Z,84.96
2023-02-15T08:32:48.170Z,84.36
2023-02-15T08:35:50.780Z,83.85
2023-02-15T08:38:53.601Z,84.15
2023-02-15T08:41:56.390Z,82.80
2023-02-15T08:44:59.189Z,83.46
2023-02-15T08:48:02.377Z,84.64
2023-02-15T08:59:05.813Z,84.26
2023-02-15T09:02:11.444Z,84.44
2023-02-15T09:09:34.186Z,82.64
2023-02-15T09:12:36.954Z,81.30
2023-02-15T09:15:39.585Z,79.89
2023-02-15T09:18:42.248Z,80.11
2023-02-15T09:21:44.848Z,79.69
2023-02-15T09:24:47.660Z,80.52
2023-02-15T09:27:50.272Z,79.61
2023-02-15T09:30:54.372Z,80.33
2023-02-15T09:33:57.600Z,79.99
2023-02-15T09:37:00.145Z,79.48
2023-02-15T09:40:02.811Z,79.28
2023-02-15T09:43:16.722Z,78.22
2023-02-15T09:46:25.197Z,78.56
2023-02-15T09:49:33.804Z,78.55
2023-02-15T09:53:10.959Z,77.64
2023-02-15T09:56:31.118Z,78.21
2023-02-15T09:59:47.369Z,76.66
2023-02-15T10:03:01.292Z,76.84
2023-02-15T10:06:06.964Z,75.42
2023-02-15T10:09:47.720Z,75.83
2023-02-15T10:13:10.742Z,76.10
2023-02-15T10:16:35.850Z,75.40
2023-02-15T10:19:58.917Z,77.14
2023-02-15T10:23:20.215Z,76.19
2023-02-15T10:26:28.271Z,76.26
2023-02-15T10:29:38.811Z,76.00
2023-02-15T10:33:05.057Z,75.94
2023-02-15T10:36:46.911Z,75.86
2023-02-15T10:40:20.889Z,75.63
2023-02-15T10:43:58.912Z,75.48
2023-02-15T10:47:34.996Z,74.63
2023-02-15T10:50:54.342Z,74.11
2023-02-15T10:54:29.845Z,73.39
2023-02-15T10:57:38.641Z,74.08
2023-02-15T11:00:49.021Z,75.24
2023-02-15T11:04:18.220Z,74.50
2023-02-15T11:07:28.378Z,73.04
2023-02-15T11:10:43.611Z,74.10
2023-02-15T11:13:50.903Z,73.87
2023-02-15T11:16:54.470Z,74.15
2023-02-15T11:20:08.917Z,73.95
2023-02-15T11:23:17.395Z,71.01
2023-02-15T11:26:39.594Z,72.47
2023-02-15T11:29:54.528Z,73.63
2023-02-15T11:32:59.521Z,73.11
2023-02-15T11:36:06.722Z,71.04
2023-02-15T11:39:13.453Z,73.39
2023-02-15T11:42:20.425Z,71.88
2023-02-15T11:45:29.331Z,72.41
2023-02-15T11:48:33.124Z,73.52
2023-02-15T11:51:36.460Z,69.50
2023-02-15T11:54:43.219Z,70.95
2023-02-15T11:57:51.828Z,70.51
2023-02-15T12:01:10.668Z,70.84
2023-02-15T12:04:22.696Z,71.96
2023-02-15T12:07:48.423Z,74.07
2023-02-15T12:11:13.769Z,69.27
2023-02-15T12:14:19.212Z,71.66
2023-02-15T12:17:23.262Z,70.78
2023-02-15T12:20:30.391Z,69.82
2023-02-15T12:23:33.446Z,68.76
2023-02-15T12:26:36.854Z,71.84
2023-02-15T12:29:45.365Z,71.24
2023-02-15T12:33:25.180Z,72.74
2023-02-15T12:36:33.733Z,72.51
2023-02-15T12:39:36.312Z,70.82
2023-02-15T12:42:44.371Z,72.77
2023-02-15T12:45:47.022Z,69.85
2023-02-15T12:49:08.044Z,72.49
2023-02-15T12:52:20.660Z,67.71
2023-02-15T12:55:31.060Z,71.04
2023-02-15T12:58:35.818Z,72.35
2023-02-15T13:01:38.621Z,72.04
2023-02-15T13:04:49.277Z,69.61
2023-02-15T13:07:56.022Z,71.56
2023-02-15T13:11:11.066Z,67.35
2023-02-15T13:14:23.141Z,71.27
2023-02-15T13:17:32.786Z,70.22
2023-02-15T13:20:36.599Z,68.79
2023-02-15T13:23:40.992Z,70.99
2023-02-15T13:26:48.309Z,67.94
2023-02-15T13:29:54.481Z,68.66
2023-02-15T13:33:12.208Z,71.18
2023-02-15T13:36:31.452Z,68.58
2023-02-15T13:39:58.464Z,71.32
2023-02-15T13:43:12.683Z,69.55
2023-02-15T13:46:53.037Z,69.95
2023-02-15T13:50:28.696Z,71.27
2023-02-15T13:53:43.509Z,71.98
2023-02-15T13:56:55.000Z,69.26
2023-02-15T13:59:57.910Z,71.39
2023-02-15T14:03:22.261Z,69.40
2023-02-15T14:06:43.796Z,68.89
2023-02-15T14:10:15.755Z,70.67
2023-02-15T14:13:39.596Z,70.20
2023-02-15T14:17:05.793Z,68.76
2023-02-15T14:20:41.377Z,71.73
2023-02-15T14:23:54.773Z,71.77
2023-02-15T14:27:20.906Z,70.62
2023-02-15T14:30:38.997Z,73.48
2023-02-15T14:33:47.323Z,72.18
2023-02-15T14:36:52.216Z,72.76
2023-02-15T14:41:02.566Z,73.48
2023-02-15T14:44:27.216Z,73.03
2023-02-15T14:47:37.374Z,73.82
2023-02-15T14:50:43.926Z,73.49
2023-02-15T14:53:47.521Z,71.50
2023-02-15T14:57:02.346Z,72.61
2023-02-15T15:00:35.370Z,74.15
2023-02-15T15:03:38.453Z,73.50
2023-02-15T15:06:45.129Z,73.63
2023-02-15T15:09:59.506Z,75.25
2023-02-15T15:13:34.090Z,75.21
2023-02-15T15:16:36.722Z,75.23
2023-02-15T15:19:52.762Z,75.50
2023-02-15T15:23:22.253Z,75.95
2023-02-15T15:26:26.498Z,76.71
2023-02-15T15:29:41.975Z,77.24
2023-02-15T15:32:59.768Z,77.30
2023-02-15T15:36:37.968Z,76.67
2023-02-15T15:39:55.625Z,76.09
2023-02-15T15:43:17.184Z,76.81
2023-02-15T15:46:51.770Z,76.98
2023-02-15T15:49:58.819Z,76.80
2023-02-15T15:53:02.857Z,76.97
2023-02-15T15:56:11.597Z,76.76
2023-02-15T15:59:20.221Z,76.77
2023-02-15T16:02:24.803Z,75.99
2023-02-15T16:05:27.694Z,77.50
2023-02-15T16:08:31.688Z,76.76
2023-02-15T16:11:34.876Z,77.78
2023-02-15T16:14:39.962Z,78.14
2023-02-15T16:17:44.784Z,78.38
2023-02-15T16:20:52.869Z,79.14
2023-02-15T16:24:19.128Z,79.55
2023-02-15T16:27:38.129Z,79.20
2023-02-15T16:30:43.396Z,77.90
2023-02-15T16:33:47.523Z,78.23
2023-02-15T16:36:52.099Z,79.08
2023-02-15T16:39:56.256Z,79.57
2023-02-15T16:43:06.298Z,79.86
2023-02-15T16:46:14.904Z,80.01
2023-02-15T16:49:23.551Z,80.21
2023-02-15T16:52:27.651Z,80.75
2023-02-15T16:55:38.957Z,82.00
2023-02-15T16:58:44.388Z,82.63
2023-02-15T17:01:47.387Z,84.24
2023-02-15T17:05:21.085Z,84.64
2023-02-15T17:08:35.555Z,84.88
2023-02-15T17:11:42.860Z,84.53
2023-02-15T17:14:45.410Z,83.65
2023-02-15T17:17:48.207Z,83.29
2023-02-15T17:20:52.905Z,82.77
2023-02-15T17:24:01.390Z,81.00
2023-02-15T17:27:26.140Z,81.21
2023-02-15T17:30:34.873Z,80.92
2023-02-15T17:33:40.535Z,80.96
2023-02-15T17:36:59.645Z,81.04
2023-02-15T17:40:16.054Z,81.14
2023-02-15T17:43:19.052Z,80.49
2023-02-15T17:46:24.553Z,81.01
2023-02-15T17:49:35.202Z,81.24
2023-02-15T17:52:37.968Z,81.04
2023-02-15T17:55:41.668Z,81.20
2023-02-15T17:58:44.725Z,82.01
2023-02-15T18:02:08.120Z,82.07
2023-02-15T18:05:33.452Z,82.80
2023-02-15T18:08:54.853Z,81.97
2023-02-15T18:11:58.171Z,82.11
2023-02-15T18:15:07.954Z,81.69
2023-02-15T18:18:14.102Z,82.01
2023-02-15T18:21:16.980Z,82.77
2023-02-15T18:24:24.878Z,82.50
2023-02-15T18:27:27.650Z,82.36
2023-02-15T18:30:30.684Z,82.57
2023-02-15T18:33:41.546Z,82.93
2023-02-15T18:36:46.256Z,82.91
2023-02-15T18:39:50.840Z,82.48
2023-02-15T18:42:53.934Z,82.66
2023-02-15T18:45:57.053Z,83.21
2023-02-15T18:49:00.326Z,84.10
2023-02-15T18:52:04.127Z,84.30
2023-02-15T18:55:23.527Z,84.67
2023-02-15T18:58:28.438Z,84.97
2023-02-15T19:01:31.579Z,84.15
2023-02-15T19:04:34.578Z,83.89
2023-02-15T19:07:37.797Z,84.39
2023-02-15T19:10:40.761Z,84.06
2023-02-15T19:13:44.244Z,84.42
2023-02-15T19:16:47.245Z,83.85
2023-02-15T19:19:51.833Z,84.12
2023-02-15T19:22:56.615Z,84.44
2023-02-15T19:25:59.673Z,83.79
2023-02-15T19:29:02.883Z,83.76
2023-02-15T19:32:05.967Z,83.54
2023-02-15T19:35:15.696Z,83.61
2023-02-15T19:38:20.419Z,83.86
2023-02-15T19:41:34.746Z,83.85
2023-02-15T19:44:40.046Z,83.32
2023-02-15T19:47:43.768Z,83.25
2023-02-15T19:50:47.255Z,84.09
2023-02-15T19:53:50.246Z,84.43
2023-02-15T19:56:52.963Z,85.22
2023-02-15T19:59:55.947Z,84.83
2023-02-15T20:03:00.138Z,84.95
2023-02-15T20:06:03.045Z,84.94
2023-02-15T20:09:06.117Z,85.08
2023-02-15T20:12:24.518Z,84.97
2023-02-15T20:15:28.491Z,85.52
2023-02-15T20:18:31.751Z,85.21
2023-02-15T20:21:36.381Z,85.75
2023-02-15T20:24:39.263Z,86.72
2023-02-15T20:27:44.320Z,86.54
2023-02-15T20:30:47.981Z,87.20
2023-02-15T20:33:51.460Z,87.58
2023-02-15T20:36:54.596Z,87.58
2023-02-15T20:39:57.466Z,87.15
2023-02-15T20:43:01.368Z,87.31
2023-02-15T20:46:04.653Z,86.63
2023-02-15T20:49:07.945Z,86.84
2023-02-15T20:52:19.606Z,87.13
2023-02-15T20:55:29.614Z,87.69
2023-02-15T20:58:38.745Z,87.36
2023-02-15T21:01:44.298Z,87.26
2023-02-15T21:04:47.123Z,87.18
2023-02-15T21:07:51.141Z,86.61
2023-02-15T21:10:54.930Z,86.70
2023-02-15T21:13:58.380Z,86.43
2023-02-15T21:17:01.393Z,86.57
2023-02-15T21:20:04.410Z,87.38
2023-02-15T21:23:07.881Z,87.45
2023-02-15T21:26:22.656Z,87.76
2023-02-15T21:29:30.770Z,88.03
2023-02-15T21:32:36.076Z,87.92
2023-02-15T21:35:39.720Z,88.21
2023-02-15T21:38:42.720Z,87.95
2023-02-15T21:42:08.693Z,87.41
2023-02-15T21:45:35.042Z,86.94
2023-02-15T21:48:37.769Z,87.89
2023-02-15T21:51:59.160Z,88.47
2023-02-15T21:55:02.108Z,88.07
2023-02-15T21:58:06.168Z,88.44
2023-02-15T22:01:28.565Z,88.46
2023-02-15T22:04:31.411Z,88.40
2023-02-15T22:07:34.015Z,87.81
2023-02-15T22:10:36.750Z,88.02
2023-02-15T22:13:40.063Z,88.09
2023-02-15T22:16:42.720Z,87.85
2023-02-15T22:19:46.744Z,88.09
2023-02-15T22:22:50.436Z,88.55
2023-02-15T22:25:59.090Z,88.74
2023-02-15T22:29:01.800Z,88.85
2023-02-15T22:32:05.106Z,89.03
2023-02-15T22:35:15.967Z,89.83
2023-02-15T22:38:18.912Z,89.44
2023-02-15T22:41:23.948Z,90.13
2023-02-15T22:44:30.309Z,90.71
2023-02-15T22:47:34.661Z,90.54
2023-02-15T22:50:37.942Z,90.06
2023-02-15T22:53:43.227Z,90.18
2023-02-15T22:56:52.927Z,90.09
2023-02-15T22:59:55.841Z,90.72
2023-02-15T23:02:58.605Z,91.16
2023-02-15T23:06:01.119Z,91.01
2023-02-15T23:09:03.996Z,90.79
2023-02-15T23:12:27.991Z,90.82
2023-02-15T23:15:33.127Z,91.60
2023-02-15T23:18:41.515Z,91.47
2023-02-15T23:21:44.577Z,91.45
2023-02-15T23:24:52.013Z,91.06
2023-02-15T23:27:57.393Z,91.07
2023-02-15T23:31:00.394Z,90.43
2023-02-15T23:34:12.054Z,91.56
2023-02-15T23:37:18.307Z,91.59
2023-02-15T23:40:40.564Z,91.30
2023-02-15T23:43:54.784Z,90.45
2023-02-15T23:46:58.726Z,89.64
2023-02-15T23:50:01.677Z,88.96
2023-02-15T23:53:04.588Z,89.20
2023-02-15T23:56:07.860Z,89.60
2023-02-15T23:59:16.432Z,90.17
